createdAt,value
2023-04-29T00:01:20.008Z,100949.56
2023-04-29T00:03:47.653Z,100940.91
2023-04-29T00:06:16.011Z,100935.72
2023-04-29T00:08:44.216Z,100938.31
2023-04-29T00:11:12.695Z,100944.25
2023-04-29T00:13:42.027Z,100948.53
2023-04-29T00:16:12.829Z,100951.53
2023-04-29T00:18:41.231Z,100948.78
2023-04-29T00:21:08.747Z,100941.91
2023-04-29T00:23:39.759Z,100915.22
2023-04-29T00:26:08.050Z,100916.44
2023-04-29T00:28:36.199Z,100921.66
2023-04-29T00:31:03.827Z,100912.25
2023-04-29T00:33:35.572Z,100915.03
2023-04-29T00:36:03.420Z,100909.06
2023-04-29T00:38:31.283Z,100923.81
2023-04-29T00:41:03.676Z,100922.19
2023-04-29T00:43:31.468Z,100920.47
2023-04-29T00:46:04.901Z,100936.94
2023-04-29T00:48:33.203Z,100940.34
2023-04-29T00:51:02.063Z,100945.47
2023-04-29T00:53:29.523Z,100939.34
2023-04-29T00:55:57.347Z,100930.63
2023-04-29T00:58:33.637Z,100934.09
2023-04-29T01:01:01.497Z,100935.84
2023-04-29T01:03:33.022Z,100928.97
2023-04-29T01:06:31.980Z,100926.63
2023-04-29T01:09:11.643Z,100933.66
2023-04-29T01:11:43.076Z,100916.50
2023-04-29T01:14:10.888Z,100919.31
2023-04-29T01:16:53.822Z,100922.88
2023-04-29T01:19:47.501Z,100926.47
2023-04-29T01:22:14.749Z,100918.75
2023-04-29T01:24:43.066Z,100916.22
2023-04-29T01:27:51.157Z,100914.53
2023-04-29T01:30:18.643Z,100916.22
2023-04-29T01:33:28.725Z,100911.94
2023-04-29T01:36:14.044Z,100897.28
2023-04-29T01:38:58.932Z,100902.53
2023-04-29T01:41:34.632Z,100912.88
2023-04-29T01:44:02.530Z,100919.69
2023-04-29T01:46:30.391Z,100913.59
2023-04-29T01:48:58.177Z,100900.63
2023-04-29T01:51:25.975Z,100905.84
2023-04-29T01:53:57.029Z,100897.31
2023-04-29T01:56:24.717Z,100889.63
2023-04-29T01:58:52.582Z,100894.84
2023-04-29T02:01:20.494Z,100893.97
2023-04-29T02:03:48.446Z,100901.59
2023-04-29T02:06:17.016Z,100901.59
2023-04-29T02:08:45.506Z,100885.25
2023-04-29T02:11:13.438Z,100896.53
2023-04-29T02:13:41.361Z,100900.03
2023-04-29T02:16:32.289Z,100916.41
2023-04-29T02:19:00.147Z,100908.56
2023-04-29T02:21:27.653Z,100899.03
2023-04-29T02:23:55.210Z,100899.91
2023-04-29T02:26:23.705Z,100894.66
2023-04-29T02:28:52.692Z,100884.25
2023-04-29T02:31:20.311Z,100877.31
2023-04-29T02:33:51.895Z,100885.09
2023-04-29T02:36:42.515Z,100896.38
2023-04-29T02:39:10.181Z,100904.06
2023-04-29T02:41:38.051Z,100899.72
2023-04-29T02:44:06.044Z,100890.28
2023-04-29T02:46:35.653Z,100868.66
2023-04-29T02:49:04.027Z,100872.06
2023-04-29T02:51:37.267Z,100868.59
2023-04-29T02:54:05.275Z,100876.31
2023-04-29T02:56:32.699Z,100879.75
2023-04-29T02:59:06.361Z,100883.94
2023-04-29T03:01:34.372Z,100901.09
2023-04-29T03:04:02.593Z,100911.44
2023-04-29T03:06:30.641Z,100909.50
2023-04-29T03:08:58.784Z,100912.97
2023-04-29T03:11:26.687Z,100919.06
2023-04-29T03:13:54.388Z,100920.69
2023-04-29T03:16:22.192Z,100923.38
2023-04-29T03:18:49.884Z,100915.59
2023-04-29T03:21:17.801Z,100900.03
2023-04-29T03:23:45.444Z,100896.50
2023-04-29T03:26:13.469Z,100893.16
2023-04-29T03:28:41.581Z,100892.16
2023-04-29T03:31:11.742Z,100886.09
2023-04-29T03:33:39.224Z,100888.75
2023-04-29T03:36:09.454Z,100884.53
2023-04-29T03:38:37.172Z,100894.16
2023-04-29T03:41:05.145Z,100911.44
2023-04-29T03:43:32.732Z,100910.63
2023-04-29T03:46:00.651Z,100924.41
2023-04-29T03:48:28.430Z,100922.69
2023-04-29T03:50:56.352Z,100920.84
2023-04-29T03:53:24.125Z,100912.09
2023-04-29T03:55:51.619Z,100908.56
2023-04-29T03:58:19.689Z,100901.56
2023-04-29T04:00:47.524Z,100887.75
2023-04-29T04:03:15.182Z,100891.94
2023-04-29T04:05:42.748Z,100897.13
2023-04-29T04:08:14.526Z,100890.16
2023-04-29T04:10:42.344Z,100889.25
2023-04-29T04:13:10.466Z,100897.09
2023-04-29T04:15:38.376Z,100905.72
2023-04-29T04:18:06.589Z,100903.13
2023-04-29T04:20:34.469Z,100908.31
2023-04-29T04:23:02.609Z,100919.50
2023-04-29T04:25:30.402Z,100928.88
2023-04-29T04:27:58.336Z,100921.09
2023-04-29T04:30:26.187Z,100911.66
2023-04-29T04:32:54.802Z,100912.59
2023-04-29T04:35:22.809Z,100910.94
2023-04-29T04:37:50.759Z,100906.66
2023-04-29T04:40:41.190Z,100912.69
2023-04-29T04:43:09.161Z,100912.72
2023-04-29T04:45:37.359Z,100905.00
2023-04-29T04:48:20.220Z,100911.97
2023-04-29T04:50:47.679Z,100918.09
2023-04-29T04:53:15.645Z,100919.06
2023-04-29T04:55:43.473Z,100923.28
2023-04-29T04:58:11.429Z,100912.78
2023-04-29T05:00:39.266Z,100916.19
2023-04-29T05:03:07.238Z,100909.16
2023-04-29T05:05:35.251Z,100911.16
2023-04-29T05:08:03.122Z,100915.44
2023-04-29T05:10:30.779Z,100910.22
2023-04-29T05:12:58.926Z,100915.31
2023-04-29T05:15:27.439Z,100913.78
2023-04-29T05:17:55.091Z,100914.72
2023-04-29T05:20:28.252Z,100922.59
2023-04-29T05:22:56.070Z,100913.81
2023-04-29T05:25:23.793Z,100911.31
2023-04-29T05:27:55.650Z,100924.34
2023-04-29T05:30:23.900Z,100921.78
2023-04-29T05:32:51.779Z,100914.09
2023-04-29T05:35:19.464Z,100925.38
2023-04-29T05:37:47.373Z,100924.59
2023-04-29T05:40:15.310Z,100936.63
2023-04-29T05:42:43.696Z,100935.59
2023-04-29T05:45:20.085Z,100934.88
2023-04-29T05:47:59.531Z,100933.38
2023-04-29T05:50:27.523Z,100926.56
2023-04-29T05:52:56.502Z,100936.19
2023-04-29T05:55:26.922Z,100944.00
2023-04-29T05:57:55.165Z,100945.88
2023-04-29T06:00:31.960Z,100945.88
2023-04-29T06:02:59.543Z,100942.47
2023-04-29T06:05:27.794Z,100939.09
2023-04-29T06:07:55.421Z,100940.81
2023-04-29T06:10:23.311Z,100950.34
2023-04-29T06:12:51.910Z,100954.75
2023-04-29T06:15:19.728Z,100949.75
2023-04-29T06:17:47.554Z,100960.22
2023-04-29T06:20:17.148Z,100962.88
2023-04-29T06:22:46.225Z,100959.53
2023-04-29T06:25:14.296Z,100964.81
2023-04-29T06:27:42.383Z,100966.72
2023-04-29T06:30:13.300Z,100961.59
2023-04-29T06:32:40.999Z,100968.53
2023-04-29T06:35:08.912Z,100972.91
2023-04-29T06:37:37.986Z,100967.72
2023-04-29T06:40:10.027Z,100966.03
2023-04-29T06:42:37.836Z,100960.25
2023-04-29T06:45:08.179Z,100958.72
2023-04-29T06:47:36.330Z,100963.09
2023-04-29T06:50:05.289Z,100966.59
2023-04-29T06:52:33.515Z,100973.63
2023-04-29T06:55:00.922Z,100974.56
2023-04-29T06:57:28.676Z,100967.59
2023-04-29T06:59:56.613Z,100965.91
2023-04-29T07:02:24.744Z,100958.16
2023-04-29T07:04:52.873Z,100944.28
2023-04-29T07:07:20.750Z,100957.41
2023-04-29T07:09:52.092Z,100953.16
2023-04-29T07:12:20.122Z,100949.78
2023-04-29T07:14:48.027Z,100954.25
2023-04-29T07:17:16.137Z,100953.50
2023-04-29T07:19:43.778Z,100958.78
2023-04-29T07:22:11.601Z,100945.00
2023-04-29T07:24:43.000Z,100952.00
2023-04-29T07:27:11.340Z,100955.50
2023-04-29T07:29:38.851Z,100948.66
2023-04-29T07:32:06.925Z,100941.72
2023-04-29T07:34:34.783Z,100938.34
2023-04-29T07:37:02.768Z,100943.53
2023-04-29T07:39:30.802Z,100943.56
2023-04-29T07:42:00.338Z,100960.94
2023-04-29T07:44:28.190Z,100962.72
2023-04-29T07:46:55.687Z,100965.31
2023-04-29T07:49:23.157Z,100967.09
2023-04-29T07:51:53.984Z,100970.59
2023-04-29T07:54:22.356Z,100967.09
2023-04-29T07:56:50.711Z,100972.31
2023-04-29T07:59:18.647Z,100978.41
2023-04-29T08:01:46.072Z,100979.28
2023-04-29T08:04:13.990Z,100977.53
2023-04-29T08:06:44.612Z,100992.25
2023-04-29T08:09:32.360Z,100989.66
2023-04-29T08:12:00.203Z,100989.72
2023-04-29T08:14:27.800Z,100992.34
2023-04-29T08:16:55.805Z,100995.78
2023-04-29T08:19:23.738Z,100996.66
2023-04-29T08:21:51.891Z,101000.97
2023-04-29T08:24:20.660Z,101004.47
2023-04-29T08:26:48.400Z,101001.91
2023-04-29T08:29:16.301Z,101000.16
2023-04-29T08:31:44.445Z,100994.97
2023-04-29T08:34:12.763Z,101007.09
2023-04-29T08:36:40.571Z,101007.13
2023-04-29T08:39:08.050Z,101010.63
2023-04-29T08:41:35.541Z,101014.97
2023-04-29T08:44:05.088Z,101010.69
2023-04-29T08:46:32.963Z,101017.66
2023-04-29T08:49:00.935Z,101016.78
2023-04-29T08:51:29.044Z,101012.44
2023-04-29T08:53:57.409Z,101009.84
2023-04-29T08:56:25.735Z,101005.47
2023-04-29T08:58:54.834Z,101004.59
2023-04-29T09:01:37.249Z,101008.06
2023-04-29T09:04:27.073Z,101005.44
2023-04-29T09:06:57.624Z,101009.81
2023-04-29T09:09:27.966Z,100997.59
2023-04-29T09:11:56.609Z,101001.06
2023-04-29T09:14:24.474Z,101006.28
2023-04-29T09:16:52.005Z,101002.81
2023-04-29T09:19:49.063Z,101001.94
2023-04-29T09:22:16.474Z,100994.09
2023-04-29T09:24:45.685Z,100996.72
2023-04-29T09:27:13.048Z,100994.97
2023-04-29T09:29:41.898Z,101001.06
2023-04-29T09:32:23.487Z,100996.75
2023-04-29T09:34:53.220Z,100991.50
2023-04-29T09:37:29.255Z,100980.19
2023-04-29T09:39:56.749Z,100981.97
2023-04-29T09:42:24.484Z,100987.19
2023-04-29T09:44:55.437Z,100986.28
2023-04-29T09:47:35.689Z,100987.16
2023-04-29T09:50:22.317Z,100983.66
2023-04-29T09:52:50.760Z,100989.66
2023-04-29T09:55:18.808Z,100984.41
2023-04-29T09:57:46.651Z,100980.06
2023-04-29T10:00:17.744Z,100979.88
2023-04-29T10:02:51.054Z,100978.94
2023-04-29T10:05:19.268Z,100974.47
2023-04-29T10:07:50.276Z,100975.31
2023-04-29T10:10:17.892Z,100961.50
2023-04-29T10:12:44.961Z,100965.00
2023-04-29T10:15:29.025Z,100962.34
2023-04-29T10:18:03.835Z,100960.50
2023-04-29T10:20:30.980Z,100964.88
2023-04-29T10:22:59.989Z,100957.09
2023-04-29T10:25:31.132Z,100957.97
2023-04-29T10:27:58.605Z,100960.53
2023-04-29T10:30:26.071Z,100956.06
2023-04-29T10:32:53.526Z,100951.53
2023-04-29T10:35:24.544Z,100950.44
2023-04-29T10:37:51.865Z,100955.66
2023-04-29T10:40:30.805Z,100944.25
2023-04-29T10:42:58.938Z,100937.31
2023-04-29T10:45:31.821Z,100938.84
2023-04-29T10:48:10.558Z,100932.84
2023-04-29T10:51:00.713Z,100929.28
2023-04-29T10:53:28.216Z,100928.44
2023-04-29T10:56:06.277Z,100926.75
2023-04-29T10:58:46.165Z,100930.28
2023-04-29T11:01:17.552Z,100926.84
2023-04-29T11:04:00.769Z,100919.84
2023-04-29T11:06:36.555Z,100919.66
2023-04-29T11:09:30.679Z,100919.69
2023-04-29T11:12:05.510Z,100910.97
2023-04-29T11:14:36.631Z,100904.56
2023-04-29T11:17:16.869Z,100907.69
2023-04-29T11:19:46.224Z,100898.19
2023-04-29T11:22:27.669Z,100906.84
2023-04-29T11:25:07.382Z,100908.19
2023-04-29T11:27:35.983Z,100909.06
2023-04-29T11:30:05.061Z,100911.59
2023-04-29T11:32:40.569Z,100915.88
2023-04-29T11:35:12.836Z,100905.63
2023-04-29T11:37:41.191Z,100904.97
2023-04-29T11:40:10.027Z,100903.13
2023-04-29T11:42:41.434Z,100897.94
2023-04-29T11:45:10.727Z,100900.59
2023-04-29T11:47:38.476Z,100912.00
2023-04-29T11:50:11.112Z,100906.66
2023-04-29T11:52:38.984Z,100904.97
2023-04-29T11:55:09.314Z,100900.09
2023-04-29T11:57:36.691Z,100899.69
2023-04-29T12:00:07.995Z,100897.91
2023-04-29T12:02:37.096Z,100891.88
2023-04-29T12:05:09.419Z,100894.56
2023-04-29T12:07:37.699Z,100898.09
2023-04-29T12:10:09.320Z,100892.22
2023-04-29T12:12:36.436Z,100891.81
2023-04-29T12:15:06.913Z,100894.72
2023-04-29T12:17:35.024Z,100890.56
2023-04-29T12:20:02.466Z,100891.88
2023-04-29T12:22:32.918Z,100901.03
2023-04-29T12:25:00.799Z,100893.34
2023-04-29T12:27:28.798Z,100892.59
2023-04-29T12:29:57.722Z,100884.88
2023-04-29T12:32:25.812Z,100889.06
2023-04-29T12:34:53.881Z,100883.91
2023-04-29T12:37:26.821Z,100897.59
2023-04-29T12:39:55.806Z,100892.81
2023-04-29T12:42:23.670Z,100886.34
2023-04-29T12:44:51.567Z,100869.31
2023-04-29T12:47:21.695Z,100871.63
2023-04-29T12:49:50.210Z,100863.06
2023-04-29T12:52:17.614Z,100853.41
2023-04-29T12:54:45.114Z,100848.91
2023-04-29T12:57:12.909Z,100847.91
2023-04-29T12:59:43.311Z,100848.59
2023-04-29T13:02:10.929Z,100848.22
2023-04-29T13:04:40.109Z,100845.75
2023-04-29T13:07:07.786Z,100848.31
2023-04-29T13:09:37.856Z,100841.56
2023-04-29T13:12:08.206Z,100842.69
2023-04-29T13:14:35.710Z,100837.16
2023-04-29T13:17:04.189Z,100829.44
2023-04-29T13:19:48.217Z,100823.19
2023-04-29T13:22:19.103Z,100822.28
2023-04-29T13:24:46.978Z,100820.69
2023-04-29T13:27:14.922Z,100816.84
2023-04-29T13:29:42.779Z,100809.81
2023-04-29T13:32:10.609Z,100813.56
2023-04-29T13:34:38.606Z,100817.25
2023-04-29T13:37:06.416Z,100817.13
2023-04-29T13:39:37.903Z,100815.91
2023-04-29T13:42:10.370Z,100816.81
2023-04-29T13:44:51.602Z,100803.28
2023-04-29T13:47:25.183Z,100803.38
2023-04-29T13:50:32.940Z,100795.91
2023-04-29T13:55:49.474Z,100794.06
2023-04-29T13:58:41.053Z,100794.66
2023-04-29T14:01:11.300Z,100792.94
2023-04-29T14:03:36.045Z,100778.19
2023-04-29T14:06:07.597Z,100789.84
2023-04-29T14:08:35.510Z,100788.72
2023-04-29T14:11:03.441Z,100784.81
2023-04-29T14:13:31.424Z,100791.69
2023-04-29T14:15:59.921Z,100788.84
2023-04-29T14:18:27.580Z,100794.97
2023-04-29T14:20:55.343Z,100795.78
2023-04-29T14:23:22.858Z,100793.59
2023-04-29T14:25:50.309Z,100798.28
2023-04-29T14:28:18.419Z,100796.53
2023-04-29T14:30:47.093Z,100795.84
2023-04-29T14:33:18.214Z,100798.69
2023-04-29T14:35:46.315Z,100788.69
2023-04-29T14:38:13.687Z,100783.91
2023-04-29T14:40:41.543Z,100782.91
2023-04-29T14:43:09.457Z,100787.97
2023-04-29T14:45:37.734Z,100784.66
2023-04-29T14:48:05.862Z,100789.13
2023-04-29T14:50:33.789Z,100787.81
2023-04-29T14:53:01.571Z,100792.44
2023-04-29T14:55:30.853Z,100786.97
2023-04-29T14:57:59.314Z,100785.75
2023-04-29T15:00:32.842Z,100788.56
2023-04-29T15:03:03.599Z,100787.13
2023-04-29T15:05:31.170Z,100794.16
2023-04-29T15:08:00.304Z,100787.84
2023-04-29T15:10:28.347Z,100781.47
2023-04-29T15:12:56.034Z,100782.38
2023-04-29T15:15:23.461Z,100779.75
2023-04-29T15:17:54.274Z,100776.97
2023-04-29T15:20:21.752Z,100775.56
2023-04-29T15:22:49.684Z,100776.91
2023-04-29T15:25:17.536Z,100773.34
2023-04-29T15:27:45.649Z,100771.00
2023-04-29T15:30:15.618Z,100777.56
2023-04-29T15:32:43.168Z,100768.84
2023-04-29T15:35:10.381Z,100772.97
2023-04-29T15:37:38.339Z,100771.38
2023-04-29T15:40:09.249Z,100765.38
2023-04-29T15:42:37.199Z,100769.81
2023-04-29T15:45:09.756Z,100771.41
2023-04-29T15:47:37.714Z,100765.66
2023-04-29T15:50:07.632Z,100759.47
2023-04-29T15:52:35.292Z,100758.13
2023-04-29T15:55:03.148Z,100764.66
2023-04-29T15:57:30.920Z,100758.66
2023-04-29T15:59:58.795Z,100759.63
2023-04-29T16:02:26.106Z,100755.03
2023-04-29T16:04:54.080Z,100759.72
2023-04-29T16:07:21.992Z,100759.72
2023-04-29T16:09:49.802Z,100753.38
2023-04-29T16:12:18.325Z,100749.84
2023-04-29T16:14:45.992Z,100756.75
2023-04-29T16:17:13.981Z,100751.56
2023-04-29T16:19:41.910Z,100757.06
2023-04-29T16:22:09.762Z,100764.13
2023-04-29T16:24:37.612Z,100764.22
2023-04-29T16:27:05.540Z,100766.88
2023-04-29T16:29:32.638Z,100764.53
2023-04-29T16:32:00.252Z,100757.53
2023-04-29T16:34:28.214Z,100762.75
2023-04-29T16:36:56.391Z,100764.72
2023-04-29T16:39:24.824Z,100758.00
2023-04-29T16:41:52.615Z,100763.47
2023-04-29T16:44:20.347Z,100766.19
2023-04-29T16:46:47.503Z,100754.06
2023-04-29T16:49:18.003Z,100751.41
2023-04-29T16:51:45.970Z,100757.72
2023-04-29T16:54:13.889Z,100761.25
2023-04-29T16:56:41.723Z,100761.28
2023-04-29T16:59:11.307Z,100755.09
2023-04-29T17:01:39.088Z,100758.59
2023-04-29T17:04:08.914Z,100749.00
2023-04-29T17:06:38.291Z,100759.50
2023-04-29T17:09:05.089Z,100749.91
2023-04-29T17:11:33.333Z,100753.63
2023-04-29T17:14:00.905Z,100751.19
2023-04-29T17:16:30.095Z,100761.78
2023-04-29T17:18:58.010Z,100758.56
2023-04-29T17:21:26.089Z,100768.94
2023-04-29T17:23:53.702Z,100765.34
2023-04-29T17:26:21.644Z,100766.09
2023-04-29T17:28:49.635Z,100759.88
2023-04-29T17:31:17.176Z,100768.50
2023-04-29T17:33:54.881Z,100764.16
2023-04-29T17:36:24.979Z,100756.25
2023-04-29T17:38:53.307Z,100762.53
2023-04-29T17:41:21.147Z,100761.50
2023-04-29T17:43:48.691Z,100764.34
2023-04-29T17:46:16.621Z,100762.81
2023-04-29T17:48:45.337Z,100762.19
2023-04-29T17:51:13.293Z,100769.31
2023-04-29T17:53:40.744Z,100771.00
2023-04-29T17:56:08.680Z,100761.47
2023-04-29T17:58:36.160Z,100773.78
2023-04-29T18:01:26.512Z,100767.72
2023-04-29T18:03:54.355Z,100773.97
2023-04-29T18:06:22.385Z,100777.59
2023-04-29T18:08:50.293Z,100775.13
2023-04-29T18:11:18.162Z,100778.69
2023-04-29T18:13:46.918Z,100769.22
2023-04-29T18:16:14.840Z,100773.69
2023-04-29T18:18:42.381Z,100771.91
2023-04-29T18:21:10.324Z,100771.06
2023-04-29T18:23:39.114Z,100775.69
2023-04-29T18:26:06.575Z,100775.09
2023-04-29T18:28:34.090Z,100775.94
2023-04-29T18:31:01.474Z,100775.09
2023-04-29T18:33:30.965Z,100776.94
2023-04-29T18:35:58.520Z,100773.47
2023-04-29T18:38:26.091Z,100783.13
2023-04-29T18:40:54.519Z,100790.09
2023-04-29T18:43:24.700Z,100778.91
2023-04-29T18:45:52.449Z,100785.94
2023-04-29T18:48:20.583Z,100796.38
2023-04-29T18:50:48.160Z,100795.53
2023-04-29T18:53:16.117Z,100792.06
2023-04-29T18:55:44.327Z,100792.97
2023-04-29T18:58:12.171Z,100793.03
2023-04-29T19:00:39.956Z,100805.22
2023-04-29T19:03:07.452Z,100807.00
2023-04-29T19:05:35.223Z,100810.47
2023-04-29T19:08:02.779Z,100818.31
2023-04-29T19:10:30.621Z,100821.81
2023-04-29T19:12:58.449Z,100821.81
2023-04-29T19:15:28.134Z,100821.84
2023-04-29T19:17:58.499Z,100822.72
2023-04-29T19:20:25.864Z,100831.41
2023-04-29T19:22:53.486Z,100823.63
2023-04-29T19:25:22.106Z,100823.63
2023-04-29T19:27:51.128Z,100830.59
2023-04-29T19:30:19.204Z,100827.13
2023-04-29T19:32:47.024Z,100838.47
2023-04-29T19:35:14.620Z,100841.06
2023-04-29T19:37:42.679Z,100839.38
2023-04-29T19:40:11.755Z,100850.66
2023-04-29T19:42:40.489Z,100849.81
2023-04-29T19:45:12.566Z,100858.50
2023-04-29T19:47:40.695Z,100859.41
2023-04-29T19:50:09.671Z,100855.94
2023-04-29T19:52:37.356Z,100855.94
2023-04-29T19:55:05.922Z,100858.56
2023-04-29T19:57:34.165Z,100863.81
2023-04-29T20:00:02.290Z,100868.13
2023-04-29T20:02:30.601Z,100868.13
2023-04-29T20:04:58.584Z,100863.81
2023-04-29T20:07:26.589Z,100868.13
2023-04-29T20:09:54.569Z,100874.22
2023-04-29T20:12:22.559Z,100874.19
2023-04-29T20:14:50.364Z,100872.47
2023-04-29T20:17:18.295Z,100879.44
2023-04-29T20:19:45.941Z,100876.81
2023-04-29T20:22:13.519Z,100893.31
2023-04-29T20:24:41.672Z,100895.06
2023-04-29T20:27:09.769Z,100894.19
2023-04-29T20:29:37.358Z,100903.72
2023-04-29T20:32:06.164Z,100901.97
2023-04-29T20:34:34.117Z,100898.47
2023-04-29T20:37:06.971Z,100901.94
2023-04-29T20:39:34.558Z,100907.13
2023-04-29T20:42:03.148Z,100908.88
2023-04-29T20:44:30.972Z,100912.31
2023-04-29T20:46:58.489Z,100908.84
2023-04-29T20:49:26.383Z,100910.53
2023-04-29T20:51:53.941Z,100909.66
2023-04-29T20:54:21.595Z,100916.56
2023-04-29T20:56:49.474Z,100917.44
2023-04-29T20:59:17.707Z,100915.72
2023-04-29T21:01:46.423Z,100912.19
2023-04-29T21:04:14.455Z,100919.13
2023-04-29T21:06:45.282Z,100923.50
2023-04-29T21:09:12.740Z,100921.72
2023-04-29T21:11:40.726Z,100929.56
2023-04-29T21:14:08.591Z,100933.00
2023-04-29T21:16:36.143Z,100931.28
2023-04-29T21:19:04.034Z,100922.56
2023-04-29T21:21:31.818Z,100923.50
2023-04-29T21:23:59.753Z,100928.66
2023-04-29T21:26:27.675Z,100926.88
2023-04-29T21:28:55.718Z,100926.88
2023-04-29T21:31:23.698Z,100921.66
2023-04-29T21:33:56.557Z,100932.06
2023-04-29T21:36:24.562Z,100939.88
2023-04-29T21:38:54.312Z,100940.69
2023-04-29T21:41:28.879Z,100940.66
2023-04-29T21:43:58.272Z,100948.41
2023-04-29T21:46:27.789Z,100947.53
2023-04-29T21:48:56.333Z,100955.34
2023-04-29T21:51:23.361Z,100954.47
2023-04-29T21:53:51.313Z,100950.97
2023-04-29T21:56:18.991Z,100958.81
2023-04-29T21:58:46.539Z,100964.03
2023-04-29T22:01:27.220Z,100964.00
2023-04-29T22:03:57.300Z,100952.66
2023-04-29T22:06:27.575Z,100956.06
2023-04-29T22:08:55.032Z,100959.56
2023-04-29T22:11:22.641Z,100960.38
2023-04-29T22:13:50.378Z,100967.34
2023-04-29T22:16:19.165Z,100973.34
2023-04-29T22:18:46.352Z,100974.22
2023-04-29T22:21:13.920Z,100972.44
2023-04-29T22:23:44.026Z,100977.66
2023-04-29T22:26:11.917Z,100979.34
2023-04-29T22:28:39.545Z,100973.31
2023-04-29T22:31:07.021Z,100982.84
2023-04-29T22:33:35.180Z,100990.63
2023-04-29T22:36:05.819Z,100991.41
2023-04-29T22:38:33.297Z,101001.03
2023-04-29T22:41:01.831Z,101003.69
2023-04-29T22:43:30.008Z,100992.50
2023-04-29T22:45:57.555Z,100986.41
2023-04-29T22:48:27.596Z,100984.66
2023-04-29T22:50:55.290Z,100980.25
2023-04-29T22:53:22.531Z,100982.88
2023-04-29T22:55:53.650Z,100975.03
2023-04-29T22:58:21.828Z,100973.31
2023-04-29T23:00:56.957Z,100971.59
2023-04-29T23:03:24.212Z,100977.69
2023-04-29T23:05:51.788Z,100988.09
2023-04-29T23:08:19.387Z,100987.03
2023-04-29T23:10:49.717Z,100987.84
2023-04-29T23:13:17.260Z,100991.31
2023-04-29T23:15:45.393Z,100989.50
2023-04-29T23:18:13.065Z,100991.22
2023-04-29T23:20:40.972Z,100992.97
2023-04-29T23:23:08.734Z,100991.25
2023-04-29T23:25:36.566Z,100998.16
2023-04-29T23:28:04.824Z,100998.19
2023-04-29T23:30:33.006Z,100992.88
2023-04-29T23:33:00.548Z,100992.81
2023-04-29T23:35:28.479Z,100991.91
2023-04-29T23:37:56.355Z,100985.88
2023-04-29T23:40:24.034Z,100990.19
2023-04-29T23:42:52.108Z,100991.03
2023-04-29T23:45:19.941Z,100988.41
2023-04-29T23:47:48.203Z,100986.66
2023-04-29T23:50:15.781Z,100984.06
2023-04-29T23:52:43.593Z,100985.91
2023-04-29T23:55:12.193Z,100977.19
2023-04-29T23:57:40.091Z,100967.69
